Aérodrome :
LOGIN :

S'inscrire | Disclaimer

   EN    FR    IT 

 










Légende :    VFR   VFR Marginal   IFR   IFR Intensif   IFR Très Intensif
Visi : 
Plafond : 
>= 8 km
>= 3000ft
5 à 8 km
1000 à 3000 ft
1500m à 5 km
500 à 1000 ft
800 à 1500m
200 à 500 ft
< 800m
< 200 ft
Symboles :   Orages  Brouillard  Fortes neiges  Fortes précipitations  Vent > 20 kt
SIGMETs :   Divers  Orages  Givrage  Turbulence  Onde Orograph.  Cendres Volcan.






- Altitude de l'aérodrome : 670 ft
- Code IATA : MSQ


UMMS - Minsk - 2

DERNIER METAR :
  • 300736Z 01007G10MPS 340V070 4800 -SHSN BLSN BKN016CB M03/M07 Q1013 R31R/650334 R31L/CLRD// NOSIG

METARs EXPIRÉS :
  • 300721Z 03008G11MPS 4900 -SHSN BLSN BKN016CB M03/M07 Q1013 R31R/650334 R31L/CLRD// NOSIG
  • 300718Z 02009G12MPS 5000 -SHSN BLSN BKN016CB M03/M07 Q1013 R31R/650334 R31L/CLRD// NOSIG
  • 300700Z 02007G10MPS 3400 -SHSN BLSN BKN012CB M03/M06 Q1013 R31R/650334 R31L/CLRD// NOSIG
  • 300645Z 01006G12MPS 330V070 4600 -SHSN BLSN BKN014CB M03/M06 Q1012 R31R/650334 R31L/CLRD// NOSIG
  • 300630Z 02008G11MPS 6000 -SHSN BLSN BKN014CB M03/M05 Q1012 R31R/650334 R31L/CLRD// NOSIG
  • 300611Z 36006G10MPS 330V030 5000 -SHSN BLSN BKN012CB M03/M05 Q1012 R31R/650334 R31L/CLRD// NOSIG
  • 300552Z 01008G11MPS 2900 -SHSN BLSN BKN011CB BKN022 M03/M05 Q1012 R31R/650334 R31L/CLRD// NOSIG
  • 300530Z 36009G12MPS 2000 R31R/1700D R31L/1900D SHSN BLSN BKN011CB BKN024 M03/M05 Q1012 R31R/650334 R31L/CLRD// NOSIG
  • 300527Z 35009G12MPS 2000 R31R/1700N R31L/2000D SHSN BLSN BKN012CB BKN024 M03/M05 Q1011 R31R/650334 R31L/CLRD// NOSIG
  • 300500Z 36007G11MPS 2700 -SHSN BLSN BKN011CB BKN035 M03/M05 Q1011 RESHSN R31R/650334 R31L/CLRD// NOSIG
  • 300447Z 35007G10MPS 2300 R31R/1600U -SHSN BLSN BKN010CB BKN041 M03/M05 Q1011 R31R/650334 R31L/CLRD// NOSIG

TAF TAF UMMS
Valide du 30 à 05h jusqu'au 31 à 06h UTC


300509Z 3005/3106 35007G12MPS 2500 -SN BLSN BKN006
TEMPO 3005/3009 01010G15MPS 0800 +SHSN BLSN BKN003 BKN010CB
FM300900 36006G11MPS 6000 BKN008
TEMPO 3009/3015 01009G14MPS 2100 -SHSNRA BKN004 BKN010CB
BECMG 3015/3017 35006MPS
TEMPO 3017/3106 2500 -SN BKN004



MET'MAP, la Météo Aéronautique d'un coup d'oeil ! - Copyright ORBIFLY Décembre 2007 - Disclaimer

ORBIFLY MET'MAP TEAM :

Programmation & Développement : Alexandra Zaïnal
Sur une idée originale de : Baudouin d'Aumeries
Assistance à la programmation : Marc-Olivier Méhu
Soutien technique & logistique : Manuel Goepfert

Contact : metmap@orbifly.com




SOURCES & CREDITS :

   NOAA